Time;durP1;ratioP1;P1;durP2;ratioP2;P2;SDS_P1;SDS_P2;PMS_P1;PMS_P2;Temp;Humidity;BMP_temperature;BMP_pressure;BME280_temperature;BME280_humidity;BME280_pressure;Samples;Min_cycle;Max_cycle;Signal;HPM_P1;HPM_P2
2023/04/17 00:00:19;;;;;;;7.43;4.23;;;;;;;10.26;nan;-24103.66;4996206;28;20563;-68
2023/04/17 00:02:45;;;;;;;9.30;4.13;;;;;;;10.18;nan;-24101.53;4996069;28;20180;-67
2023/04/17 00:05:10;;;;;;;5.82;3.95;;;;;;;10.42;nan;-24108.03;4996057;28;20180;-67
2023/04/17 00:07:40;;;;;;;5.22;3.55;;;;;;;10.44;nan;-24108.59;4995663;28;20188;-67
2023/04/17 00:10:09;;;;;;;6.28;3.63;;;;;;;10.29;nan;-24104.38;4995580;28;20173;-67
2023/04/17 00:12:35;;;;;;;7.15;3.90;;;;;;;10.18;nan;-24101.53;4995768;28;20256;-67
2023/04/17 00:15:01;;;;;;;8.45;3.80;;;;;;;10.16;nan;-24100.84;4996105;28;20201;-67
2023/04/17 00:17:26;;;;;;;8.07;4.85;;;;;;;10.47;nan;-24109.44;4994676;28;20188;-67
2023/04/17 00:19:52;;;;;;;6.53;4.28;;;;;;;10.42;nan;-24108.16;4995639;28;20169;-66
2023/04/17 00:22:17;;;;;;;5.68;3.53;;;;;;;10.35;nan;-24106.06;4995450;28;20177;-66
2023/04/17 00:24:43;;;;;;;5.78;3.80;;;;;;;10.01;nan;-24096.59;5002271;28;20176;-66
2023/04/17 00:27:08;;;;;;;7.50;4.07;;;;;;;10.14;nan;-24100.25;4996961;28;20165;-67
2023/04/17 00:29:36;;;;;;;7.47;4.00;;;;;;;10.11;nan;-24099.41;4995773;28;20279;-66
2023/04/17 00:32:02;;;;;;;13.63;4.35;;;;;;;10.12;nan;-24099.84;4995786;28;20165;-67
2023/04/17 00:34:27;;;;;;;5.43;3.30;;;;;;;10.27;nan;-24103.78;4995871;28;20280;-66
2023/04/17 00:36:53;;;;;;;5.85;3.53;;;;;;;10.19;nan;-24101.81;4995377;28;20276;-67
2023/04/17 00:39:18;;;;;;;5.70;3.47;;;;;;;10.23;nan;-24102.66;4995306;28;20524;-66
2023/04/17 00:41:44;;;;;;;11.50;4.13;;;;;;;9.92;nan;-24094.06;4995726;28;20239;-67
2023/04/17 00:44:09;;;;;;;8.68;4.57;;;;;;;10.45;nan;-24109.03;4995384;28;20179;-65
2023/04/17 00:46:35;;;;;;;8.63;4.57;;;;;;;10.10;nan;-24099.28;4995393;28;20719;-67
2023/04/17 00:49:00;;;;;;;7.85;4.68;;;;;;;9.95;nan;-24094.91;4993838;28;20168;-67
2023/04/17 00:51:26;;;;;;;5.90;3.73;;;;;;;10.23;nan;-24102.66;4995254;28;20200;-67
2023/04/17 00:53:53;;;;;;;6.23;3.80;;;;;;;9.77;nan;-24090.09;4995362;28;20188;-67
2023/04/17 00:56:19;;;;;;;7.45;4.03;;;;;;;9.63;nan;-24086.13;4995218;28;20204;-68
2023/04/17 00:58:45;;;;;;;7.43;4.10;;;;;;;9.80;nan;-24090.66;4995392;28;20177;-66
2023/04/17 01:01:10;;;;;;;7.37;4.13;;;;;;;9.80;nan;-24090.66;4994976;28;20530;-68
2023/04/17 01:03:36;;;;;;;6.87;4.10;;;;;;;9.78;nan;-24090.25;4995142;28;20326;-68
2023/04/17 01:06:02;;;;;;;8.07;3.50;;;;;;;9.82;nan;-24091.22;4995017;28;20196;-67
2023/04/17 01:08:35;;;;;;;6.03;3.83;;;;;;;9.91;nan;-24093.78;4994945;28;20228;-68
2023/04/17 01:11:01;;;;;;;11.25;3.83;;;;;;;9.40;nan;-24079.50;4995049;28;20180;-67
2023/04/17 01:13:26;;;;;;;8.07;3.85;;;;;;;9.43;nan;-24080.34;4994921;28;20177;-68
2023/04/17 01:15:52;;;;;;;5.80;3.90;;;;;;;9.60;nan;-24085.16;4994913;28;20204;-68
2023/04/17 01:18:27;;;;;;;7.55;4.18;;;;;;;9.66;nan;-24086.84;4994564;28;20180;-68
2023/04/17 01:20:52;;;;;;;6.40;4.17;;;;;;;9.81;nan;-24090.94;4993397;28;20188;-68
2023/04/17 01:23:17;;;;;;;8.73;3.80;;;;;;;9.45;nan;-24080.91;4995335;28;20670;-66
2023/04/17 01:25:43;;;;;;;5.97;3.40;;;;;;;9.38;nan;-24078.94;4999151;28;20184;-68
2023/04/17 01:28:09;;;;;;;5.63;3.63;;;;;;;9.54;nan;-24083.47;4994731;28;20177;-68
2023/04/17 01:30:35;;;;;;;5.97;3.70;;;;;;;9.58;nan;-24084.72;5009415;28;20180;-67
2023/04/17 01:33:00;;;;;;;8.07;4.10;;;;;;;9.26;nan;-24075.69;5009591;28;20188;-69
2023/04/17 01:35:26;;;;;;;6.70;4.20;;;;;;;9.52;nan;-24083.03;4993994;28;20274;-68
2023/04/17 01:37:51;;;;;;;5.17;3.97;;;;;;;9.17;nan;-24073.28;4994825;28;20241;-68
2023/04/17 01:40:17;;;;;;;6.50;3.63;;;;;;;9.19;nan;-24073.84;4993427;28;20192;-67
2023/04/17 01:42:42;;;;;;;7.30;3.77;;;;;;;9.34;nan;-24077.94;4994679;28;20249;-69
2023/04/17 01:45:08;;;;;;;6.33;4.17;;;;;;;9.12;nan;-24071.88;4994307;28;20177;-66
2023/04/17 01:47:33;;;;;;;5.77;3.20;;;;;;;9.21;nan;-24074.41;4994206;28;20684;-67
2023/04/17 01:49:59;;;;;;;6.10;3.50;;;;;;;9.33;nan;-24077.66;4993990;28;20173;-66
2023/04/17 01:52:25;;;;;;;6.73;3.97;;;;;;;8.97;nan;-24067.63;4994373;28;20172;-66
2023/04/17 01:54:50;;;;;;;6.27;3.80;;;;;;;9.08;nan;-24070.59;4994245;28;20580;-67
2023/04/17 01:57:15;;;;;;;4.10;3.10;;;;;;;8.93;nan;-24066.34;4994500;28;20192;-66
2023/04/17 01:59:41;;;;;;;5.70;3.57;;;;;;;8.87;nan;-24064.78;4993841;28;20172;-67
2023/04/17 02:02:06;;;;;;;7.80;3.53;;;;;;;8.80;nan;-24062.94;4993694;28;20263;-67
2023/04/17 02:04:31;;;;;;;6.50;3.67;;;;;;;9.16;nan;-24072.84;4993648;28;20181;-67
2023/04/17 02:06:57;;;;;;;8.80;3.97;;;;;;;8.78;nan;-24062.38;4993956;28;20187;-68
2023/04/17 02:09:22;;;;;;;6.40;3.87;;;;;;;9.02;nan;-24069.03;4993761;28;20169;-68
2023/04/17 02:11:47;;;;;;;4.87;3.20;;;;;;;9.11;nan;-24071.44;4993939;28;20597;-68
2023/04/17 02:14:14;;;;;;;6.73;3.27;;;;;;;8.96;nan;-24067.34;4993858;28;20611;-67
2023/04/17 02:16:44;;;;;;;8.40;3.70;;;;;;;9.16;nan;-24072.84;4993768;28;20176;-68
2023/04/17 02:19:10;;;;;;;5.50;3.73;;;;;;;8.70;nan;-24059.97;4991989;28;20281;-67
2023/04/17 02:21:36;;;;;;;7.80;3.33;;;;;;;9.13;nan;-24072.00;4994116;28;20614;-67
2023/04/17 02:24:02;;;;;;;6.73;3.60;;;;;;;9.03;nan;-24069.19;4994097;28;20189;-66
2023/04/17 02:26:27;;;;;;;4.43;3.07;;;;;;;9.14;nan;-24072.28;4998852;28;20267;-66
2023/04/17 02:28:52;;;;;;;3.90;2.87;;;;;;;8.68;nan;-24059.41;4993218;28;20215;-66
2023/04/17 02:31:18;;;;;;;6.73;3.50;;;;;;;8.66;nan;-24059.00;4993586;28;20639;-68
2023/04/17 02:33:43;;;;;;;6.07;3.17;;;;;;;8.73;nan;-24060.84;4993312;28;20208;-66
2023/04/17 02:36:08;;;;;;;5.10;3.20;;;;;;;8.62;nan;-24057.72;4992978;28;20286;-68
2023/04/17 02:38:34;;;;;;;6.17;3.30;;;;;;;8.47;nan;-24053.47;4993175;28;20629;-67
2023/04/17 02:40:59;;;;;;;6.73;3.43;;;;;;;8.58;nan;-24056.59;4993208;28;20189;-68
2023/04/17 02:43:25;;;;;;;6.30;3.53;;;;;;;8.53;nan;-24055.31;4993299;28;20588;-68
2023/04/17 02:45:50;;;;;;;9.17;3.30;;;;;;;8.77;nan;-24062.09;4993398;28;20187;-67
2023/04/17 02:48:17;;;;;;;7.03;3.00;;;;;;;8.54;nan;-24055.59;4992918;28;20595;-68
2023/04/17 02:50:42;;;;;;;4.93;3.07;;;;;;;8.46;nan;-24053.34;4993029;28;20180;-66
2023/04/17 02:53:08;;;;;;;4.33;2.90;;;;;;;8.35;nan;-24050.38;4993972;28;20172;-66
2023/04/17 02:55:33;;;;;;;4.90;3.10;;;;;;;8.71;nan;-24060.25;4992959;28;20207;-67
2023/04/17 02:58:00;;;;;;;7.00;3.23;;;;;;;8.41;nan;-24052.06;4993253;28;20251;-67
2023/04/17 03:00:26;;;;;;;4.13;2.47;;;;;;;8.10;nan;-24043.28;4991277;28;20185;-67
2023/04/17 03:02:52;;;;;;;4.93;3.57;;;;;;;8.30;nan;-24048.81;4978413;28;20177;-68
2023/04/17 03:05:19;;;;;;;5.47;2.93;;;;;;;8.00;nan;-24040.44;4988853;28;20199;-67
2023/04/17 03:07:44;;;;;;;3.97;2.80;;;;;;;8.33;nan;-24049.66;4992492;28;20618;-66
2023/04/17 03:10:10;;;;;;;4.70;3.03;;;;;;;8.08;nan;-24042.56;4992796;28;20208;-68
2023/04/17 03:12:36;;;;;;;4.47;2.97;;;;;;;8.25;nan;-24047.38;4992097;28;20188;-68
2023/04/17 03:15:01;;;;;;;4.87;3.17;;;;;;;8.54;nan;-24055.59;4992668;28;20730;-66
2023/04/17 03:17:27;;;;;;;5.43;2.67;;;;;;;8.65;nan;-24058.56;4992506;28;20244;-66
2023/04/17 03:19:52;;;;;;;4.87;3.00;;;;;;;8.56;nan;-24056.16;4992595;28;20260;-66
2023/04/17 03:22:17;;;;;;;4.70;2.90;;;;;;;8.64;nan;-24058.28;4992978;28;20263;-66
2023/04/17 03:24:43;;;;;;;3.30;2.47;;;;;;;8.30;nan;-24048.94;4992130;28;20180;-67
2023/04/17 03:27:08;;;;;;;4.83;2.70;;;;;;;8.59;nan;-24057.00;4996804;28;20210;-68
2023/04/17 03:29:34;;;;;;;3.77;2.67;;;;;;;8.50;nan;-24054.47;4992817;28;20165;-69
2023/04/17 03:31:59;;;;;;;4.80;2.70;;;;;;;8.14;nan;-24044.28;4992428;28;20644;-66
2023/04/17 03:34:25;;;;;;;2.77;2.23;;;;;;;8.20;nan;-24045.97;4991925;28;20177;-68
2023/04/17 03:36:50;;;;;;;3.60;2.80;;;;;;;8.26;nan;-24047.81;4992404;28;20168;-68
2023/04/17 03:39:16;;;;;;;3.33;2.60;;;;;;;8.11;nan;-24043.41;4991058;28;20171;-68
2023/04/17 03:41:41;;;;;;;3.83;2.30;;;;;;;7.97;nan;-24039.72;4992357;28;20173;-66
2023/04/17 03:44:07;;;;;;;3.73;2.43;;;;;;;8.21;nan;-24046.41;4992548;28;20598;-67
2023/04/17 03:46:33;;;;;;;4.13;2.73;;;;;;;8.46;nan;-24053.34;4992127;28;20172;-67
2023/04/17 03:48:58;;;;;;;3.77;2.47;;;;;;;8.01;nan;-24040.72;4992039;28;20679;-67
2023/04/17 03:51:26;;;;;;;5.23;2.93;;;;;;;8.25;nan;-24047.38;4992274;28;20193;-66
2023/04/17 03:53:51;;;;;;;4.67;3.20;;;;;;;8.45;nan;-24053.06;4992485;28;20181;-68
2023/04/17 03:56:17;;;;;;;4.77;3.33;;;;;;;8.56;nan;-24056.03;4992388;28;20215;-67
2023/04/17 03:58:42;;;;;;;6.17;3.23;;;;;;;8.32;nan;-24049.50;4992534;28;20164;-68
2023/04/17 04:01:09;;;;;;;4.97;3.17;;;;;;;8.62;nan;-24057.72;4991897;28;20564;-68
2023/04/17 04:03:35;;;;;;;6.93;3.87;;;;;;;8.28;nan;-24048.38;4992249;28;20212;-68
2023/04/17 04:06:01;;;;;;;3.40;2.80;;;;;;;8.63;nan;-24058.16;4992547;28;20200;-68
2023/04/17 04:08:27;;;;;;;7.63;3.40;;;;;;;8.37;nan;-24050.78;4992317;28;20214;-67
2023/04/17 04:10:52;;;;;;;8.43;4.60;;;;;;;8.81;nan;-24063.09;4992034;28;20172;-67
2023/04/17 04:13:17;;;;;;;6.90;3.63;;;;;;;8.70;nan;-24060.13;4992094;28;20188;-67
2023/04/17 04:15:43;;;;;;;4.73;3.50;;;;;;;8.54;nan;-24055.47;4991715;28;20247;-68
2023/04/17 04:18:08;;;;;;;6.70;3.80;;;;;;;8.16;nan;-24044.84;4992574;28;20192;-68
2023/04/17 04:20:34;;;;;;;11.40;4.20;;;;;;;8.48;nan;-24053.91;4992054;28;20232;-67
2023/04/17 04:22:59;;;;;;;9.57;4.13;;;;;;;8.49;nan;-24054.03;4993340;28;20177;-67
2023/04/17 04:25:25;;;;;;;11.27;4.07;;;;;;;8.43;nan;-24052.47;4995773;28;20185;-66
2023/04/17 04:27:51;;;;;;;5.73;3.67;;;;;;;8.92;nan;-24066.22;5000882;28;20247;-66
2023/04/17 04:30:19;;;;;;;5.33;4.03;;;;;;;9.06;nan;-24070.16;4995411;28;20257;-66
2023/04/17 04:32:45;;;;;;;7.30;3.97;;;;;;;8.88;nan;-24065.22;4995728;28;20172;-68
2023/04/17 04:35:14;;;;;;;8.47;4.47;;;;;;;9.43;nan;-24080.50;4993901;28;20205;-69
2023/04/17 04:37:41;;;;;;;10.00;3.70;;;;;;;9.34;nan;-24077.94;4985864;28;20196;-68
2023/04/17 04:40:09;;;;;;;5.13;3.50;;;;;;;9.48;nan;-24081.91;4978180;28;20285;-68
2023/04/17 04:42:35;;;;;;;8.03;3.40;;;;;;;9.22;nan;-24074.56;4989173;28;20267;-68
2023/04/17 04:45:01;;;;;;;8.87;3.73;;;;;;;9.49;nan;-24082.19;4977799;28;20188;-66
2023/04/17 04:47:27;;;;;;;10.10;3.90;;;;;;;9.52;nan;-24083.03;4985548;28;20582;-67
2023/04/17 04:49:52;;;;;;;7.10;3.63;;;;;;;9.28;nan;-24076.38;4983010;28;20271;-66
2023/04/17 04:52:18;;;;;;;4.67;3.33;;;;;;;9.58;nan;-24084.59;4995881;28;20173;-67
2023/04/17 04:54:43;;;;;;;6.20;3.90;;;;;;;9.60;nan;-24085.16;4995161;28;20286;-67
2023/04/17 04:57:09;;;;;;;5.70;3.50;;;;;;;9.60;nan;-24085.16;4993312;28;20189;-67
2023/04/17 04:59:34;;;;;;;6.17;3.93;;;;;;;10.02;nan;-24096.88;4984400;28;20207;-66
2023/04/17 05:01:59;;;;;;;9.97;4.33;;;;;;;9.86;nan;-24092.34;4984135;28;20189;-66
2023/04/17 05:04:25;;;;;;;11.43;4.80;;;;;;;10.11;nan;-24099.56;4995223;28;20676;-67
2023/04/17 05:06:51;;;;;;;6.07;3.70;;;;;;;10.28;nan;-24104.22;4988267;28;20204;-68
2023/04/17 05:09:16;;;;;;;7.30;3.80;;;;;;;10.48;nan;-24109.88;4978208;28;20174;-68
2023/04/17 05:11:42;;;;;;;7.88;4.00;;;;;;;10.43;nan;-24108.47;4994891;28;20187;-66
2023/04/17 05:14:07;;;;;;;9.87;5.13;;;;;;;10.18;nan;-24101.41;4994367;28;20251;-67
2023/04/17 05:16:32;;;;;;;7.83;4.40;;;;;;;10.31;nan;-24104.94;4995084;28;20565;-66
2023/04/17 05:18:58;;;;;;;7.57;4.63;;;;;;;10.31;nan;-24105.06;4994636;28;20185;-67
2023/04/17 05:21:23;;;;;;;15.50;5.63;;;;;;;10.51;nan;-24110.72;4994592;28;20173;-68
2023/04/17 05:23:49;;;;;;;12.80;6.93;;;;;;;10.70;nan;-24115.78;4993501;28;20183;-67
2023/04/17 05:26:14;;;;;;;15.05;6.57;;;;;;;10.51;nan;-24110.56;4988083;28;20274;-65
2023/04/17 05:28:40;;;;;;;14.70;7.10;;;;;;;10.89;nan;-24121.28;4989014;28;20185;-66
2023/04/17 05:31:05;;;;;;;14.48;7.30;;;;;;;11.25;nan;-24131.31;4985817;28;20188;-67
2023/04/17 05:33:31;;;;;;;17.63;7.32;;;;;;;11.17;nan;-24129.03;4979661;28;20181;-68
2023/04/17 05:35:56;;;;;;;17.45;7.22;;;;;;;11.56;nan;-24139.91;4985497;28;20220;-68
2023/04/17 05:38:22;;;;;;;12.07;6.13;;;;;;;11.49;nan;-24138.06;4985262;28;20618;-67
2023/04/17 05:40:47;;;;;;;13.00;6.57;;;;;;;11.56;nan;-24139.91;4981418;28;20195;-67
2023/04/17 05:43:13;;;;;;;22.92;7.97;;;;;;;11.39;nan;-24135.09;4994128;28;20169;-69
2023/04/17 05:45:40;;;;;;;21.70;7.97;;;;;;;11.70;nan;-24143.84;4994044;28;20181;-67
2023/04/17 05:48:05;;;;;;;21.02;8.13;;;;;;;11.69;nan;-24143.56;4994397;28;20289;-68
2023/04/17 05:50:31;;;;;;;17.63;8.25;;;;;;;12.20;nan;-24157.66;4993839;28;20593;-66
2023/04/17 05:52:56;;;;;;;13.52;7.80;;;;;;;12.77;nan;-24173.69;4987118;28;20191;-66
2023/04/17 05:55:22;;;;;;;13.25;6.93;;;;;;;13.16;nan;-24184.50;4982204;28;20204;-66
2023/04/17 05:57:47;;;;;;;20.40;7.20;;;;;;;12.98;nan;-24179.44;4979754;28;20683;-67
2023/04/17 06:00:13;;;;;;;14.95;7.20;;;;;;;13.09;nan;-24182.53;4985082;28;20240;-67
2023/04/17 06:02:41;;;;;;;13.77;7.18;;;;;;;13.13;nan;-24183.66;4983437;28;20181;-68
2023/04/17 06:05:08;;;;;;;8.70;4.90;;;;;;;13.28;nan;-24187.75;4983645;28;20247;-68
2023/04/17 06:07:33;;;;;;;10.73;5.18;;;;;;;13.25;nan;-24187.03;4989298;28;20184;-66
2023/04/17 06:10:00;;;;;;;12.85;4.78;;;;;;;13.58;nan;-24196.16;4981643;28;20198;-68
2023/04/17 06:12:25;;;;;;;7.85;4.63;;;;;;;14.13;nan;-24211.47;4985396;28;20191;-68
2023/04/17 06:14:50;;;;;;;8.82;4.78;;;;;;;14.36;nan;-24217.78;4993313;28;20215;-67
2023/04/17 06:17:16;;;;;;;9.18;4.97;;;;;;;14.19;nan;-24213.00;4994185;28;20198;-68
2023/04/17 06:19:41;;;;;;;9.27;4.18;;;;;;;14.37;nan;-24218.06;4993867;28;20180;-68
2023/04/17 06:22:06;;;;;;;8.13;4.43;;;;;;;14.90;nan;-24232.63;4993627;28;20699;-67
2023/04/17 06:24:32;;;;;;;14.05;4.80;;;;;;;14.89;nan;-24232.50;4993293;28;20231;-66
2023/04/17 06:26:57;;;;;;;8.70;4.53;;;;;;;14.42;nan;-24219.31;4988595;28;20189;-67
2023/04/17 06:29:23;;;;;;;8.13;4.32;;;;;;;14.88;nan;-24232.09;4987540;28;20264;-67
2023/04/17 06:31:48;;;;;;;9.10;4.55;;;;;;;14.87;nan;-24231.94;4982700;28;20569;-67
2023/04/17 06:34:14;;;;;;;8.18;4.28;;;;;;;15.40;nan;-24246.66;4984634;28;20217;-66
2023/04/17 06:36:40;;;;;;;8.77;4.88;;;;;;;15.78;nan;-24257.16;4993253;28;20209;-67
2023/04/17 06:39:05;;;;;;;10.30;5.30;;;;;;;15.96;nan;-24262.06;4992890;28;20176;-68
2023/04/17 06:41:30;;;;;;;9.60;5.53;;;;;;;16.17;nan;-24267.94;4993197;28;20196;-67
2023/04/17 06:43:56;;;;;;;10.73;4.72;;;;;;;16.51;nan;-24277.16;4993107;28;20187;-67
2023/04/17 06:46:21;;;;;;;7.28;4.30;;;;;;;16.49;nan;-24276.72;4993128;28;20177;-67
2023/04/17 06:48:50;;;;;;;9.35;4.57;;;;;;;16.76;nan;-24284.28;4993757;28;20224;-67
2023/04/17 06:51:19;;;;;;;8.77;4.32;;;;;;;16.39;nan;-24273.94;4993032;28;20654;-68
2023/04/17 06:53:45;;;;;;;8.50;4.38;;;;;;;15.98;nan;-24262.59;4993114;28;20184;-68
2023/04/17 06:56:11;;;;;;;9.07;4.80;;;;;;;15.95;nan;-24261.78;4992836;28;20203;-69
2023/04/17 06:58:42;;;;;;;10.35;4.63;;;;;;;15.28;nan;-24243.28;4992931;28;20251;-66
2023/04/17 07:01:11;;;;;;;10.07;4.55;;;;;;;15.13;nan;-24238.94;4993274;28;20212;-68
2023/04/17 07:03:40;;;;;;;9.63;5.10;;;;;;;14.96;nan;-24234.31;4992813;28;20248;-67
2023/04/17 07:06:06;;;;;;;8.65;4.07;;;;;;;14.84;nan;-24230.97;4992974;28;20169;-69
2023/04/17 07:08:32;;;;;;;8.20;4.75;;;;;;;14.72;nan;-24227.75;4992659;28;20212;-68
2023/04/17 07:10:57;;;;;;;8.70;4.80;;;;;;;14.99;nan;-24235.31;4992661;28;20274;-68
2023/04/17 07:13:23;;;;;;;7.80;4.78;;;;;;;15.16;nan;-24239.94;4993144;28;20240;-67
2023/04/17 07:15:55;;;;;;;6.25;3.75;;;;;;;15.49;nan;-24249.03;4993129;28;20204;-68
2023/04/17 07:18:21;;;;;;;9.70;3.40;;;;;;;15.42;nan;-24247.22;4992659;28;20195;-68
2023/04/17 07:20:47;;;;;;;6.55;3.53;;;;;;;15.76;nan;-24256.59;4992788;28;20701;-66
2023/04/17 07:23:13;;;;;;;7.65;3.83;;;;;;;15.56;nan;-24250.84;4992193;28;20248;-65
2023/04/17 07:25:38;;;;;;;6.93;3.90;;;;;;;15.22;nan;-24241.59;4992622;28;20283;-67
2023/04/17 07:28:04;;;;;;;7.40;3.88;;;;;;;15.19;nan;-24240.63;4996393;28;20263;-66
2023/04/17 07:30:29;;;;;;;7.63;3.97;;;;;;;15.16;nan;-24239.94;4989152;28;20224;-68
2023/04/17 07:32:55;;;;;;;5.07;3.20;;;;;;;15.74;nan;-24255.91;4983730;28;20176;-69
2023/04/17 07:35:21;;;;;;;6.45;3.70;;;;;;;15.48;nan;-24248.75;4986195;28;20287;-68
2023/04/17 07:37:47;;;;;;;8.38;3.90;;;;;;;15.30;nan;-24243.72;4976529;28;20209;-70
2023/04/17 07:40:13;;;;;;;4.85;3.40;;;;;;;15.52;nan;-24249.75;4805783;28;20959;-68
2023/04/17 07:42:38;;;;;;;6.72;4.28;;;;;;;15.67;nan;-24254.06;4816010;28;20645;-68
2023/04/17 07:45:05;;;;;;;6.13;4.13;;;;;;;15.06;nan;-24237.00;4990745;28;20243;-67
2023/04/17 07:47:30;;;;;;;7.80;4.20;;;;;;;15.02;nan;-24236.16;4992521;28;20282;-67
2023/04/17 07:49:56;;;;;;;8.18;3.65;;;;;;;14.94;nan;-24233.75;4992319;28;20177;-68
2023/04/17 07:52:21;;;;;;;7.03;3.63;;;;;;;14.81;nan;-24230.25;4992258;28;20172;-69
2023/04/17 07:54:47;;;;;;;7.72;4.47;;;;;;;14.85;nan;-24231.38;4985738;28;20239;-67
2023/04/17 07:57:14;;;;;;;6.78;4.18;;;;;;;14.40;nan;-24218.75;4978688;28;20612;-69
2023/04/17 07:59:40;;;;;;;9.80;4.35;;;;;;;14.66;nan;-24226.06;4981843;28;20173;-67
2023/04/17 08:02:06;;;;;;;6.75;4.63;;;;;;;14.13;nan;-24211.31;4993336;28;20616;-65
2023/04/17 08:04:32;;;;;;;7.82;4.60;;;;;;;14.22;nan;-24213.84;4995870;28;20176;-68
2023/04/17 08:06:58;;;;;;;9.50;4.88;;;;;;;14.34;nan;-24217.22;4989284;28;20860;-68
2023/04/17 08:09:23;;;;;;;11.40;5.25;;;;;;;14.18;nan;-24212.72;4985940;28;20203;-69
2023/04/17 08:11:49;;;;;;;12.88;6.63;;;;;;;13.70;nan;-24199.53;4985102;28;20260;-67
2023/04/17 08:14:16;;;;;;;13.35;5.80;;;;;;;13.61;nan;-24196.88;4986555;28;20176;-68
2023/04/17 08:16:41;;;;;;;9.27;5.47;;;;;;;13.58;nan;-24196.16;4995526;28;20581;-70
2023/04/17 08:19:07;;;;;;;9.68;5.88;;;;;;;13.59;nan;-24196.31;4995508;28;20179;-66
2023/04/17 08:21:32;;;;;;;10.55;5.90;;;;;;;13.60;nan;-24196.59;4995577;28;20172;-68
2023/04/17 08:23:57;;;;;;;8.90;5.32;;;;;;;13.36;nan;-24189.84;4995878;28;20267;-66
2023/04/17 08:26:23;;;;;;;11.43;6.10;;;;;;;13.38;nan;-24190.56;4995937;28;20259;-68
2023/04/17 08:28:48;;;;;;;11.93;5.43;;;;;;;13.62;nan;-24197.28;5001189;28;20183;-67
2023/04/17 08:31:14;;;;;;;11.57;5.78;;;;;;;13.25;nan;-24186.91;4995841;28;20196;-70
2023/04/17 08:33:39;;;;;;;9.10;5.35;;;;;;;13.11;nan;-24183.09;4995635;28;20172;-68
2023/04/17 08:36:08;;;;;;;9.00;5.32;;;;;;;12.84;nan;-24175.66;4995699;28;20204;-69
2023/04/17 08:38:34;;;;;;;9.00;5.70;;;;;;;13.38;nan;-24190.56;4995400;28;20173;-67
2023/04/17 08:41:04;;;;;;;8.43;4.97;;;;;;;13.34;nan;-24189.28;4995914;28;20227;-68
2023/04/17 08:43:31;;;;;;;9.48;4.88;;;;;;;13.08;nan;-24182.25;4995677;28;20177;-69
2023/04/17 08:45:57;;;;;;;9.30;5.20;;;;;;;13.47;nan;-24192.94;4995359;28;20183;-69
2023/04/17 08:48:23;;;;;;;12.52;4.65;;;;;;;13.43;nan;-24191.94;4995516;28;20216;-68
2023/04/17 08:50:51;;;;;;;8.75;5.00;;;;;;;13.70;nan;-24199.41;4995206;28;20176;-68
2023/04/17 08:53:17;;;;;;;9.05;5.22;;;;;;;13.83;nan;-24203.03;4995699;28;20176;-68
2023/04/17 08:55:44;;;;;;;12.45;5.72;;;;;;;13.43;nan;-24191.94;4994973;28;20224;-67
2023/04/17 08:58:09;;;;;;;7.93;5.00;;;;;;;13.22;nan;-24186.19;4994837;28;20177;-66
2023/04/17 09:00:37;;;;;;;9.38;5.25;;;;;;;13.46;nan;-24192.66;4994903;28;20181;-68
2023/04/17 09:03:09;;;;;;;11.35;6.43;;;;;;;13.73;nan;-24200.25;4994560;28;20185;-69
2023/04/17 09:05:36;;;;;;;11.63;5.63;;;;;;;13.80;nan;-24202.06;4994761;28;20263;-69
2023/04/17 09:08:09;;;;;;;10.52;5.80;;;;;;;13.94;nan;-24206.13;4994937;28;20207;-68
2023/04/17 09:10:38;;;;;;;10.60;5.80;;;;;;;14.04;nan;-24208.81;4994038;28;20177;-69
2023/04/17 09:13:04;;;;;;;11.20;6.38;;;;;;;14.22;nan;-24213.72;4994557;28;20177;-68
2023/04/17 09:15:30;;;;;;;11.55;6.32;;;;;;;14.45;nan;-24220.16;4994552;28;20350;-68
2023/04/17 09:17:56;;;;;;;13.35;5.45;;;;;;;14.28;nan;-24215.41;4994278;28;20255;-67
2023/04/17 09:20:21;;;;;;;8.00;5.28;;;;;;;14.61;nan;-24224.50;4994538;28;20196;-67
2023/04/17 09:22:47;;;;;;;8.68;5.05;;;;;;;14.60;nan;-24224.38;4994882;28;20260;-69
2023/04/17 09:25:20;;;;;;;10.65;5.90;;;;;;;14.90;nan;-24232.63;4994572;28;20169;-69
2023/04/17 09:27:45;;;;;;;7.68;5.25;;;;;;;14.74;nan;-24228.16;4999644;28;20165;-68
2023/04/17 09:30:12;;;;;;;8.70;5.13;;;;;;;15.00;nan;-24235.59;4994851;28;20334;-69
2023/04/17 09:32:41;;;;;;;9.27;5.47;;;;;;;14.68;nan;-24226.47;4994333;28;20238;-67
2023/04/17 09:35:07;;;;;;;8.40;4.97;;;;;;;14.93;nan;-24233.63;4994936;28;20204;-69
2023/04/17 09:37:50;;;;;;;10.50;5.47;;;;;;;15.28;nan;-24243.28;4994749;28;20552;-67
2023/04/17 09:40:18;;;;;;;10.57;5.43;;;;;;;15.08;nan;-24237.69;4994337;28;20644;-67
2023/04/17 09:42:59;;;;;;;8.55;5.72;;;;;;;15.66;nan;-24253.66;4994281;28;20168;-68
2023/04/17 09:45:31;;;;;;;8.38;5.63;;;;;;;15.80;nan;-24257.72;4994205;28;20177;-69
2023/04/17 09:47:57;;;;;;;9.57;5.88;;;;;;;15.64;nan;-24253.22;4994671;28;20236;-68
2023/04/17 09:50:25;;;;;;;10.25;5.88;;;;;;;15.59;nan;-24251.84;4994299;28;20169;-67
2023/04/17 09:52:53;;;;;;;10.82;6.30;;;;;;;15.92;nan;-24260.94;4994286;28;20165;-67
2023/04/17 09:55:23;;;;;;;7.82;5.47;;;;;;;15.74;nan;-24256.03;4994097;28;20634;-68
2023/04/17 09:57:50;;;;;;;10.98;6.50;;;;;;;16.11;nan;-24266.25;4994111;28;20608;-69
2023/04/17 10:00:18;;;;;;;11.15;6.57;;;;;;;15.75;nan;-24256.31;4994269;28;20177;-67
2023/04/17 10:02:44;;;;;;;10.65;6.43;;;;;;;16.17;nan;-24267.78;4993774;28;20323;-68
2023/04/17 10:05:10;;;;;;;10.13;6.45;;;;;;;16.08;nan;-24265.41;4993695;28;20691;-68
2023/04/17 10:07:37;;;;;;;11.35;6.63;;;;;;;16.25;nan;-24270.03;4993580;28;20535;-68
2023/04/17 10:10:08;;;;;;;10.85;5.60;;;;;;;16.89;nan;-24287.78;4992549;28;20587;-69
2023/04/17 10:12:35;;;;;;;9.88;6.28;;;;;;;16.99;nan;-24290.56;4994256;28;20523;-68
2023/04/17 10:15:02;;;;;;;10.32;6.30;;;;;;;16.50;nan;-24276.88;4993851;28;20555;-70
2023/04/17 10:17:33;;;;;;;13.98;6.68;;;;;;;16.94;nan;-24289.03;4993639;28;20565;-68
2023/04/17 10:20:31;;;;;;;10.88;5.95;;;;;;;17.18;nan;-24295.72;4993648;28;20173;-68
2023/04/17 10:22:57;;;;;;;10.93;6.47;;;;;;;17.08;nan;-24293.09;4970945;28;20204;-67
2023/04/17 10:25:26;;;;;;;9.82;6.18;;;;;;;17.40;nan;-24301.72;4993551;28;20551;-67
2023/04/17 10:27:53;;;;;;;13.02;6.72;;;;;;;17.26;nan;-24297.97;4998715;28;20247;-69
2023/04/17 10:30:21;;;;;;;10.85;5.90;;;;;;;17.27;nan;-24298.09;4993286;28;20177;-66
2023/04/17 10:33:12;;;;;;;10.30;6.28;;;;;;;17.18;nan;-24295.72;4993210;28;20323;-68
2023/04/17 10:35:38;;;;;;;11.88;6.35;;;;;;;17.08;nan;-24293.09;4993669;28;20193;-68
2023/04/17 10:38:05;;;;;;;10.50;6.53;;;;;;;16.63;nan;-24280.66;4993443;28;20679;-68
2023/04/17 10:40:33;;;;;;;9.02;6.07;;;;;;;16.67;nan;-24281.63;4992773;28;20180;-59
2023/04/17 10:43:18;;;;;;;11.80;5.97;;;;;;;16.72;nan;-24283.03;4993189;28;20164;-59
2023/04/17 10:46:00;;;;;;;11.55;5.75;;;;;;;17.06;nan;-24292.38;4993559;28;20184;-60
2023/04/17 10:48:31;;;;;;;9.63;5.85;;;;;;;17.26;nan;-24297.97;4993561;28;20230;-60
2023/04/17 10:50:58;;;;;;;10.95;5.95;;;;;;;16.87;nan;-24287.06;4992980;28;20239;-60
2023/04/17 10:53:42;;;;;;;11.07;6.72;;;;;;;16.97;nan;-24289.88;4991791;28;20276;-60
2023/04/17 10:56:09;;;;;;;13.10;7.25;;;;;;;17.23;nan;-24297.28;4992308;28;20326;-59
2023/04/17 10:58:53;;;;;;;13.77;6.85;;;;;;;16.94;nan;-24289.16;4993030;28;20223;-59
2023/04/17 11:01:18;;;;;;;15.57;8.25;;;;;;;16.91;nan;-24288.19;4993015;28;20175;-59
2023/04/17 11:03:45;;;;;;;15.40;8.95;;;;;;;16.97;nan;-24290.00;4992975;28;20165;-60
2023/04/17 11:06:12;;;;;;;19.13;9.52;;;;;;;16.76;nan;-24284.28;4992434;28;20188;-60
2023/04/17 11:08:37;;;;;;;23.85;10.82;;;;;;;16.84;nan;-24286.38;4992632;28;20169;-59
2023/04/17 11:11:03;;;;;;;40.17;15.60;;;;;;;17.16;nan;-24295.31;4992815;28;20184;-59
2023/04/17 11:13:32;;;;;;;42.85;15.20;;;;;;;17.25;nan;-24297.69;4993003;28;20263;-60
2023/04/17 11:15:58;;;;;;;24.60;11.50;;;;;;;16.87;nan;-24287.22;4992494;28;20705;-63
2023/04/17 11:18:25;;;;;;;35.25;13.95;;;;;;;17.31;nan;-24299.22;4992571;28;20176;-63
2023/04/17 11:20:51;;;;;;;51.92;16.38;;;;;;;17.30;nan;-24299.09;4992326;28;20667;-61
2023/04/17 11:23:17;;;;;;;32.80;13.52;;;;;;;17.32;nan;-24299.63;4992638;28;20263;-60
2023/04/17 11:25:43;;;;;;;25.80;12.77;;;;;;;17.33;nan;-24299.78;4992617;28;20242;-58
2023/04/17 11:28:10;;;;;;;55.58;18.52;;;;;;;17.34;nan;-24300.06;4992154;28;20594;-60
2023/04/17 11:30:43;;;;;;;28.23;11.70;;;;;;;17.52;nan;-24305.22;4977844;28;20187;-59
2023/04/17 11:33:10;;;;;;;13.35;8.30;;;;;;;17.70;nan;-24310.13;4971477;28;20181;-60
2023/04/17 11:35:38;;;;;;;13.85;7.72;;;;;;;17.78;nan;-24312.19;4972687;28;20201;-59
2023/04/17 11:38:20;;;;;;;21.92;10.32;;;;;;;18.04;nan;-24319.44;4972829;28;20235;-60